createdAt,value
2022-12-08T00:01:21.353Z,24.50
2022-12-08T00:03:48.473Z,27.77
2022-12-08T00:07:08.611Z,25.27
2022-12-08T00:09:39.911Z,25.48
2022-12-08T00:12:13.974Z,23.60
2022-12-08T00:14:46.951Z,25.75
2022-12-08T00:17:19.095Z,23.60
2022-12-08T00:19:46.247Z,23.67
2022-12-08T00:22:15.921Z,23.23
2022-12-08T00:24:45.489Z,22.48
2022-12-08T00:27:14.611Z,25.95
2022-12-08T00:29:43.246Z,22.67
2022-12-08T00:32:10.828Z,24.98
2022-12-08T00:34:41.698Z,22.25
2022-12-08T00:37:12.000Z,29.95
2022-12-08T00:39:38.539Z,25.05
2022-12-08T00:42:17.382Z,26.90
2022-12-08T00:44:45.151Z,24.33
2022-12-08T00:47:13.285Z,24.20
2022-12-08T00:49:40.142Z,26.50
2022-12-08T00:52:07.348Z,28.67
2022-12-08T00:54:37.029Z,25.52
2022-12-08T00:57:04.052Z,24.80
2022-12-08T00:59:30.559Z,24.20
2022-12-08T01:01:57.168Z,22.42
2022-12-08T01:04:23.685Z,26.50
2022-12-08T01:06:50.518Z,29.52
2022-12-08T01:09:18.469Z,22.88
2022-12-08T01:11:45.515Z,21.08
2022-12-08T01:14:15.509Z,23.55
2022-12-08T01:16:45.333Z,25.63
2022-12-08T01:19:15.569Z,21.65
2022-12-08T01:21:43.617Z,18.45
2022-12-08T01:24:15.134Z,19.35
2022-12-08T01:26:42.064Z,21.10
2022-12-08T01:29:11.224Z,24.08
2022-12-08T01:31:38.339Z,22.02
2022-12-08T01:34:05.498Z,24.17
2022-12-08T01:36:34.715Z,23.73
2022-12-08T01:39:01.857Z,23.85
2022-12-08T01:41:31.351Z,25.20
2022-12-08T01:44:00.744Z,32.75
2022-12-08T01:46:32.377Z,20.30
2022-12-08T01:49:13.914Z,29.02
2022-12-08T01:51:48.820Z,21.48
2022-12-08T01:54:16.416Z,21.60
2022-12-08T01:56:56.690Z,25.88
2022-12-08T01:59:31.813Z,20.63
2022-12-08T02:02:00.405Z,24.80
2022-12-08T02:04:26.855Z,21.13
2022-12-08T02:06:54.622Z,28.80
2022-12-08T02:09:21.578Z,23.88
2022-12-08T02:11:50.039Z,20.23
2022-12-08T02:14:16.780Z,22.75
2022-12-08T02:17:03.168Z,26.50
2022-12-08T02:19:47.804Z,22.27
2022-12-08T02:22:54.269Z,21.48
2022-12-08T02:25:46.649Z,21.67
2022-12-08T02:28:50.292Z,23.65
2022-12-08T02:32:00.501Z,29.30
2022-12-08T02:34:36.195Z,22.33
2022-12-08T02:37:47.725Z,28.23
2022-12-08T02:40:29.072Z,20.92
2022-12-08T02:43:02.625Z,22.75
2022-12-08T02:45:55.566Z,27.10
2022-12-08T02:48:22.207Z,23.63
2022-12-08T02:50:48.749Z,21.08
2022-12-08T02:55:55.528Z,25.83
2022-12-08T02:58:42.170Z,23.73
2022-12-08T03:01:20.652Z,22.55
2022-12-08T03:04:11.580Z,21.70
2022-12-08T03:06:53.242Z,28.20
2022-12-08T03:09:28.760Z,22.52
2022-12-08T03:12:08.634Z,23.92
2022-12-08T03:14:37.692Z,22.17
2022-12-08T03:17:08.665Z,29.90
2022-12-08T03:19:41.400Z,21.40
2022-12-08T03:22:09.322Z,24.23
2022-12-08T03:24:41.798Z,25.00
2022-12-08T03:27:11.164Z,23.77
2022-12-08T03:29:37.875Z,18.60
2022-12-08T03:32:16.173Z,23.05
2022-12-08T03:34:46.906Z,18.95
2022-12-08T03:37:15.201Z,22.20
2022-12-08T03:39:42.558Z,22.90
2022-12-08T03:42:12.232Z,19.90
2022-12-08T03:44:38.750Z,23.38
2022-12-08T03:47:05.407Z,28.48
2022-12-08T03:49:32.091Z,20.80
2022-12-08T03:51:59.114Z,21.95
2022-12-08T03:54:25.657Z,25.33
2022-12-08T03:56:52.212Z,28.80
2022-12-08T03:59:21.500Z,28.38
2022-12-08T04:01:48.038Z,23.00
2022-12-08T04:04:14.654Z,24.30
2022-12-08T04:06:41.111Z,20.20
2022-12-08T04:09:07.640Z,21.02
2022-12-08T04:11:34.124Z,20.35
2022-12-08T04:14:00.724Z,21.42
2022-12-08T04:16:28.492Z,26.08
2022-12-08T04:18:55.089Z,24.63
2022-12-08T04:21:21.910Z,20.15
2022-12-08T04:23:48.792Z,21.02
2022-12-08T04:26:19.477Z,20.85
2022-12-08T04:29:20.149Z,26.25
2022-12-08T04:31:46.670Z,27.35
2022-12-08T04:34:13.316Z,22.67
2022-12-08T04:36:42.146Z,20.38
2022-12-08T04:39:08.687Z,21.13
2022-12-08T04:41:35.234Z,24.67
2022-12-08T04:44:01.730Z,26.02
2022-12-08T04:46:28.309Z,21.65
2022-12-08T04:48:54.766Z,21.05
2022-12-08T04:51:21.628Z,20.13
2022-12-08T04:53:48.327Z,21.77
2022-12-08T04:56:16.587Z,21.73
2022-12-08T04:58:43.504Z,24.85
2022-12-08T05:01:10.089Z,18.13
2022-12-08T05:03:36.638Z,24.85
2022-12-08T05:06:06.343Z,15.63
2022-12-08T05:08:33.744Z,19.83
2022-12-08T05:11:08.721Z,17.58
2022-12-08T05:13:35.289Z,16.85
2022-12-08T05:16:11.527Z,21.67
2022-12-08T05:18:38.774Z,15.23
2022-12-08T05:21:09.014Z,15.80
2022-12-08T05:23:36.259Z,18.58
2022-12-08T05:26:02.894Z,20.08
2022-12-08T05:28:44.826Z,18.45
2022-12-08T05:31:15.874Z,16.60
2022-12-08T05:33:43.718Z,14.77
2022-12-08T05:36:13.036Z,14.18
2022-12-08T05:38:39.789Z,18.95
2022-12-08T05:41:10.493Z,19.95
2022-12-08T05:43:37.013Z,17.90
2022-12-08T05:46:03.633Z,15.32
2022-12-08T05:48:32.983Z,15.23
2022-12-08T05:50:59.576Z,13.77
2022-12-08T05:53:26.048Z,16.90
2022-12-08T05:55:52.860Z,15.23
2022-12-08T05:58:21.622Z,14.80
2022-12-08T06:00:51.678Z,14.93
2022-12-08T06:03:19.841Z,12.95
2022-12-08T06:05:47.332Z,12.70
2022-12-08T06:08:13.935Z,14.63
2022-12-08T06:10:42.419Z,14.23
2022-12-08T06:13:12.261Z,14.32
2022-12-08T06:15:39.338Z,15.07
2022-12-08T06:18:06.619Z,16.75
2022-12-08T06:20:33.895Z,18.33
2022-12-08T06:23:00.651Z,20.42
2022-12-08T06:25:27.152Z,17.08
2022-12-08T06:27:53.699Z,18.17
2022-12-08T06:30:20.317Z,15.27
2022-12-08T06:32:47.118Z,17.08
2022-12-08T06:35:16.357Z,15.98
2022-12-08T06:37:42.868Z,13.68
2022-12-08T06:40:09.834Z,19.40
2022-12-08T06:42:45.146Z,16.90
2022-12-08T06:45:13.871Z,18.77
2022-12-08T06:47:40.687Z,17.65
2022-12-08T06:50:08.066Z,14.70
2022-12-08T06:52:37.650Z,14.25
2022-12-08T06:55:08.361Z,14.63
2022-12-08T06:57:37.698Z,16.80
2022-12-08T07:00:06.197Z,16.27
2022-12-08T07:02:33.497Z,15.23
2022-12-08T07:05:00.109Z,16.70
2022-12-08T07:07:26.647Z,14.07
2022-12-08T07:09:53.116Z,16.02
2022-12-08T07:12:19.899Z,17.17
2022-12-08T07:14:46.416Z,19.48
2022-12-08T07:17:13.644Z,16.95
2022-12-08T07:19:41.115Z,16.38
2022-12-08T07:22:07.754Z,16.88
2022-12-08T07:24:37.779Z,18.95
2022-12-08T07:27:04.460Z,15.48
2022-12-08T07:29:31.126Z,16.42
2022-12-08T07:31:57.642Z,16.27
2022-12-08T07:34:24.308Z,17.15
2022-12-08T07:36:50.823Z,12.15
2022-12-08T07:39:22.656Z,13.63
2022-12-08T07:41:49.140Z,13.73
2022-12-08T07:44:16.218Z,15.43
2022-12-08T07:46:42.767Z,14.63
2022-12-08T07:49:12.011Z,15.20
2022-12-08T07:51:38.510Z,13.52
2022-12-08T07:54:05.142Z,11.45
2022-12-08T07:56:31.684Z,13.43
2022-12-08T07:59:00.698Z,13.20
2022-12-08T08:01:29.627Z,12.45
2022-12-08T08:03:58.266Z,10.88
2022-12-08T08:06:35.798Z,13.20
2022-12-08T08:09:02.520Z,12.90
2022-12-08T08:11:29.033Z,10.38
2022-12-08T08:13:56.991Z,13.48
2022-12-08T08:16:23.614Z,10.65
2022-12-08T08:18:51.527Z,11.70
2022-12-08T08:21:44.401Z,11.43
2022-12-08T08:24:06.250Z,13.23
2022-12-08T08:26:32.756Z,12.07
2022-12-08T08:28:59.331Z,13.23
2022-12-08T08:31:26.957Z,12.75
2022-12-08T08:33:54.416Z,12.23
2022-12-08T08:36:22.107Z,12.88
2022-12-08T08:38:48.738Z,11.40
2022-12-08T08:41:15.242Z,11.38
2022-12-08T08:43:41.750Z,12.00
2022-12-08T08:46:09.023Z,8.60
2022-12-08T08:48:36.225Z,9.35
2022-12-08T08:51:14.070Z,12.80
2022-12-08T08:53:41.305Z,9.07
2022-12-08T08:56:13.261Z,9.07
2022-12-08T09:01:06.680Z,8.23
2022-12-08T09:03:33.851Z,6.63
2022-12-08T09:06:00.478Z,6.00
2022-12-08T09:08:27.315Z,5.40
2022-12-08T09:10:54.806Z,5.32
2022-12-08T09:13:23.364Z,5.82
2022-12-08T09:15:49.969Z,5.97
2022-12-08T09:18:16.538Z,6.60
2022-12-08T09:20:43.014Z,5.57
2022-12-08T09:23:12.837Z,5.35
2022-12-08T09:25:42.585Z,6.88
2022-12-08T09:28:09.195Z,5.47
2022-12-08T09:30:35.752Z,7.90
2022-12-08T09:33:02.280Z,8.23
2022-12-08T09:35:31.883Z,8.40
2022-12-08T09:37:58.372Z,8.38
2022-12-08T09:40:26.266Z,7.78
2022-12-08T09:43:04.516Z,8.88
2022-12-08T09:45:38.416Z,8.43
2022-12-08T09:48:10.806Z,9.55
2022-12-08T09:50:56.724Z,7.72
2022-12-08T09:53:35.127Z,7.63
2022-12-08T09:56:32.819Z,7.50
2022-12-08T09:59:20.834Z,8.48
2022-12-08T10:01:47.374Z,8.30
2022-12-08T10:04:28.750Z,8.15
2022-12-08T10:07:25.048Z,9.32
2022-12-08T10:10:10.201Z,11.90
2022-12-08T10:13:00.950Z,9.48
2022-12-08T10:15:46.119Z,10.68
2022-12-08T10:18:18.321Z,10.77
2022-12-08T10:20:48.035Z,9.07
2022-12-08T10:23:35.387Z,8.38
2022-12-08T10:26:08.043Z,11.00
2022-12-08T10:28:43.014Z,9.63
2022-12-08T10:31:19.867Z,9.38
2022-12-08T10:33:48.364Z,7.20
2022-12-08T10:36:15.078Z,8.88
2022-12-08T10:38:41.645Z,8.27
2022-12-08T10:41:10.991Z,7.63
2022-12-08T10:44:01.487Z,7.60
2022-12-08T10:46:29.073Z,4.43
2022-12-08T10:49:17.376Z,6.45
2022-12-08T10:51:43.910Z,7.10
2022-12-08T10:54:33.909Z,8.15
2022-12-08T10:57:00.415Z,6.25
2022-12-08T10:59:27.048Z,5.15
2022-12-08T11:01:57.669Z,4.63
2022-12-08T11:04:31.311Z,4.30
2022-12-08T11:06:57.881Z,4.93
2022-12-08T11:09:36.173Z,5.40
2022-12-08T11:12:13.420Z,3.45
2022-12-08T11:14:42.768Z,4.15
2022-12-08T11:17:15.872Z,2.75
2022-12-08T11:19:45.418Z,4.88
2022-12-08T11:22:29.563Z,3.72
2022-12-08T11:25:26.423Z,5.47
2022-12-08T11:27:57.331Z,3.55
2022-12-08T11:30:58.049Z,2.60
2022-12-08T11:33:26.956Z,3.72
2022-12-08T11:36:07.343Z,4.20
2022-12-08T11:38:39.377Z,3.67
2022-12-08T11:41:15.747Z,3.53
2022-12-08T11:44:06.071Z,2.60
2022-12-08T11:46:40.331Z,3.13
2022-12-08T11:49:12.245Z,3.95
2022-12-08T11:54:29.806Z,3.20
2022-12-08T11:56:58.822Z,3.10
2022-12-08T11:59:29.898Z,2.10
2022-12-08T12:01:58.518Z,2.17
2022-12-08T12:04:41.010Z,5.70
2022-12-08T12:07:25.831Z,3.75
2022-12-08T12:10:22.941Z,2.45
2022-12-08T12:12:52.371Z,2.55
2022-12-08T12:15:33.909Z,4.95
2022-12-08T12:18:23.646Z,2.33
2022-12-08T12:20:58.484Z,3.80
2022-12-08T12:23:42.367Z,5.22
2022-12-08T12:26:20.098Z,3.80
2022-12-08T12:28:58.150Z,2.90
2022-12-08T12:31:29.682Z,12.50
2022-12-08T12:34:07.578Z,4.07
2022-12-08T12:36:50.018Z,4.05
2022-12-08T12:39:20.887Z,3.92
2022-12-08T12:41:53.943Z,5.28
2022-12-08T12:44:23.993Z,5.85
2022-12-08T12:46:50.952Z,4.57
2022-12-08T12:49:39.243Z,5.32
2022-12-08T12:52:23.413Z,4.93
2022-12-08T12:54:49.869Z,5.10
2022-12-08T12:57:19.146Z,7.30
2022-12-08T12:59:48.884Z,6.22
2022-12-08T13:02:20.503Z,5.57
2022-12-08T13:04:56.886Z,6.10
2022-12-08T13:07:27.445Z,5.57
2022-12-08T13:10:22.583Z,5.47
2022-12-08T13:13:07.557Z,6.05
2022-12-08T13:15:39.881Z,8.40
2022-12-08T13:18:15.614Z,8.18
2022-12-08T13:20:57.307Z,7.28
2022-12-08T13:23:44.538Z,6.40
2022-12-08T13:26:22.101Z,6.55
2022-12-08T13:29:08.566Z,6.43
2022-12-08T13:31:50.895Z,7.07
2022-12-08T13:34:48.775Z,7.40
2022-12-08T13:37:56.749Z,12.40
2022-12-08T13:40:27.712Z,6.45
2022-12-08T13:43:15.532Z,7.05
2022-12-08T13:57:26.847Z,10.27
2022-12-08T13:59:53.404Z,9.98
2022-12-08T14:02:56.444Z,12.05
2022-12-08T14:05:47.598Z,12.98
2022-12-08T14:08:58.989Z,16.40
2022-12-08T14:11:35.655Z,28.77
2022-12-08T14:15:01.098Z,10.45
2022-12-08T14:17:24.256Z,12.48
2022-12-08T14:20:00.717Z,10.73
2022-12-08T14:22:35.793Z,8.35
2022-12-08T14:25:04.013Z,10.25
2022-12-08T14:27:35.117Z,9.63
2022-12-08T14:30:14.087Z,8.27
2022-12-08T14:32:52.662Z,7.95
2022-12-08T14:35:28.014Z,8.82
2022-12-08T14:37:57.551Z,9.55
2022-12-08T14:40:35.736Z,10.98
2022-12-08T14:43:08.680Z,13.10
2022-12-08T14:45:46.147Z,12.13
2022-12-08T14:48:21.705Z,10.05
2022-12-08T14:51:07.479Z,12.32
2022-12-08T14:54:11.135Z,9.75
2022-12-08T14:56:57.224Z,10.18
2022-12-08T14:59:27.117Z,17.75
2022-12-08T15:02:24.124Z,15.05
2022-12-08T15:04:58.536Z,14.00
2022-12-08T15:07:48.772Z,10.60
2022-12-08T15:10:15.236Z,12.90
2022-12-08T15:12:57.828Z,12.15
2022-12-08T15:15:24.494Z,11.80
2022-12-08T15:17:58.173Z,12.20
2022-12-08T15:20:44.796Z,10.05
2022-12-08T15:23:38.428Z,13.27
2022-12-08T15:26:06.861Z,14.13
2022-12-08T15:28:37.077Z,12.02
2022-12-08T15:31:03.620Z,11.82
2022-12-08T15:33:30.184Z,14.05
2022-12-08T15:35:56.704Z,15.95
2022-12-08T15:38:26.862Z,13.35
2022-12-08T15:40:54.807Z,11.30
2022-12-08T15:43:22.273Z,14.20
2022-12-08T15:45:58.421Z,13.55
2022-12-08T15:48:32.270Z,11.63
2022-12-08T15:51:01.200Z,12.73
2022-12-08T15:53:27.833Z,13.00
2022-12-08T15:58:57.865Z,12.40
2022-12-08T16:01:24.867Z,13.48
2022-12-08T16:04:47.486Z,14.82
2022-12-08T16:09:38.388Z,13.35
2022-12-08T16:12:26.111Z,15.00
2022-12-08T16:17:40.799Z,14.25
2022-12-08T16:20:12.787Z,14.00
2022-12-08T16:25:27.292Z,13.60
2022-12-08T16:30:43.674Z,18.25
2022-12-08T16:33:15.120Z,18.55
2022-12-08T16:35:42.035Z,17.10
2022-12-08T16:38:10.998Z,17.92
2022-12-08T16:40:57.442Z,18.05
2022-12-08T16:43:24.135Z,18.83
2022-12-08T16:45:50.752Z,17.38
2022-12-08T16:48:17.224Z,16.23
2022-12-08T16:50:45.260Z,16.42
2022-12-08T16:53:12.861Z,20.10
2022-12-08T16:55:43.508Z,20.80
2022-12-08T16:58:10.064Z,21.90
2022-12-08T17:00:37.163Z,18.58
2022-12-08T17:03:05.257Z,17.73
2022-12-08T17:05:32.091Z,16.80
2022-12-08T17:08:00.340Z,17.75
2022-12-08T17:10:35.682Z,20.33
2022-12-08T17:13:02.787Z,22.27
2022-12-08T17:15:29.346Z,17.10
2022-12-08T17:17:56.102Z,18.55
2022-12-08T17:20:28.021Z,17.73
2022-12-08T17:25:21.952Z,16.83
2022-12-08T17:27:48.446Z,21.20
2022-12-08T17:30:19.920Z,19.80
2022-12-08T17:32:46.591Z,25.42
2022-12-08T17:35:16.221Z,25.50
2022-12-08T17:37:43.937Z,23.27
2022-12-08T17:40:11.172Z,23.73
2022-12-08T17:42:38.704Z,24.42
2022-12-08T17:45:07.496Z,20.23
2022-12-08T17:47:34.178Z,20.98
2022-12-08T17:50:04.781Z,21.42
2022-12-08T17:52:31.435Z,20.67
2022-12-08T17:54:57.910Z,25.05
2022-12-08T17:57:24.402Z,23.15
2022-12-08T17:59:50.921Z,23.13
2022-12-08T18:02:18.370Z,22.02
2022-12-08T18:04:45.146Z,20.77
2022-12-08T18:07:11.618Z,19.90
2022-12-08T18:09:41.533Z,21.80
2022-12-08T18:12:08.099Z,22.50
2022-12-08T18:14:34.691Z,21.05
2022-12-08T18:17:01.484Z,20.40
2022-12-08T18:19:28.130Z,19.05
2022-12-08T18:21:54.674Z,19.90
2022-12-08T18:24:26.409Z,20.58
2022-12-08T18:26:53.159Z,19.05
2022-12-08T18:29:21.464Z,20.35
2022-12-08T18:31:48.962Z,19.42
2022-12-08T18:34:15.730Z,19.45
2022-12-08T18:36:42.356Z,19.38
2022-12-08T18:39:21.024Z,19.52
2022-12-08T18:41:47.605Z,20.65
2022-12-08T18:44:14.101Z,22.27
2022-12-08T18:46:44.287Z,21.45
2022-12-08T18:49:16.545Z,21.80
2022-12-08T18:51:46.423Z,19.88
2022-12-08T18:54:13.514Z,21.27
2022-12-08T18:56:40.347Z,20.88
2022-12-08T18:59:12.333Z,24.20
2022-12-08T19:06:57.038Z,23.05
2022-12-08T19:09:27.162Z,23.02
2022-12-08T19:11:53.961Z,24.05
2022-12-08T19:14:27.796Z,21.52
2022-12-08T19:16:54.865Z,22.77
2022-12-08T19:19:21.590Z,22.23
2022-12-08T19:21:48.141Z,22.95
2022-12-08T19:24:14.759Z,22.33
2022-12-08T19:26:42.154Z,27.30
2022-12-08T19:29:09.438Z,31.30
2022-12-08T19:31:36.133Z,39.13
2022-12-08T19:34:02.923Z,37.55
2022-12-08T19:36:35.263Z,35.53
2022-12-08T19:39:21.952Z,34.08
2022-12-08T19:42:07.213Z,26.85
2022-12-08T19:44:52.081Z,28.35
2022-12-08T19:47:20.252Z,25.63
2022-12-08T19:49:46.898Z,23.02
2022-12-08T19:52:13.499Z,22.02
2022-12-08T19:54:40.034Z,26.05
2022-12-08T19:57:06.490Z,27.17
2022-12-08T19:59:35.776Z,23.80
2022-12-08T20:02:02.311Z,23.45
2022-12-08T20:04:28.886Z,23.77
2022-12-08T20:06:58.310Z,24.15
2022-12-08T20:09:25.991Z,26.85
2022-12-08T20:11:54.654Z,28.77
2022-12-08T20:14:22.472Z,22.58
2022-12-08T20:16:49.877Z,26.75
2022-12-08T20:19:21.791Z,26.85
2022-12-08T20:21:48.824Z,23.98
2022-12-08T20:24:16.931Z,24.13
2022-12-08T20:26:43.472Z,24.20
2022-12-08T20:29:09.932Z,23.77
2022-12-08T20:31:39.258Z,28.83
2022-12-08T20:34:05.813Z,27.17
2022-12-08T20:36:32.428Z,30.08
2022-12-08T20:38:58.934Z,30.52
2022-12-08T20:41:25.429Z,31.88
2022-12-08T20:43:52.225Z,33.55
2022-12-08T20:46:20.049Z,31.67
2022-12-08T20:48:47.223Z,34.03
2022-12-08T20:51:17.765Z,36.13
2022-12-08T20:53:44.978Z,31.10
2022-12-08T20:56:19.420Z,31.65
2022-12-08T20:58:49.603Z,28.98
2022-12-08T21:01:19.139Z,31.73
2022-12-08T21:03:46.669Z,32.17
2022-12-08T21:06:13.891Z,29.58
2022-12-08T21:08:47.486Z,33.08
2022-12-08T21:11:14.250Z,28.98
2022-12-08T21:13:41.016Z,31.25
2022-12-08T21:16:10.958Z,33.75
2022-12-08T21:18:39.687Z,32.40
2022-12-08T21:21:15.048Z,34.58
2022-12-08T21:23:42.868Z,41.15
2022-12-08T21:26:16.020Z,34.88
2022-12-08T21:28:43.302Z,35.90
2022-12-08T21:31:15.675Z,32.58
2022-12-08T21:33:43.109Z,30.23
2022-12-08T21:36:18.402Z,30.35
2022-12-08T21:38:46.273Z,29.52
2022-12-08T21:41:42.117Z,32.20
2022-12-08T21:44:11.583Z,33.10
2022-12-08T21:46:39.059Z,28.70
2022-12-08T21:49:07.190Z,30.27
2022-12-08T21:51:37.840Z,30.58
2022-12-08T21:54:05.032Z,30.08
2022-12-08T21:56:31.867Z,41.53
2022-12-08T21:58:58.584Z,53.47
2022-12-08T22:01:25.246Z,53.63
2022-12-08T22:03:51.950Z,63.50
2022-12-08T22:06:18.475Z,50.20
2022-12-08T22:08:45.779Z,49.30
2022-12-08T22:11:12.871Z,50.67
2022-12-08T22:13:43.445Z,50.10
2022-12-08T22:16:12.241Z,39.67
2022-12-08T22:18:39.161Z,51.15
2022-12-08T22:21:15.635Z,47.10
2022-12-08T22:23:45.944Z,50.50
2022-12-08T22:26:13.278Z,58.25
2022-12-08T22:28:41.975Z,52.80
2022-12-08T22:31:21.056Z,45.25
2022-12-08T22:33:49.405Z,43.92
2022-12-08T22:36:22.495Z,39.83
2022-12-08T22:38:49.835Z,35.75
2022-12-08T22:41:19.466Z,37.78
2022-12-08T22:43:47.351Z,37.45
2022-12-08T22:46:22.833Z,48.80
2022-12-08T22:48:50.154Z,74.18
2022-12-08T22:51:17.687Z,90.05
2022-12-08T22:53:44.711Z,145.23
2022-12-08T22:56:13.022Z,160.05
2022-12-08T22:58:40.922Z,116.13
2022-12-08T23:01:08.520Z,66.65
2022-12-08T23:03:35.517Z,58.63
2022-12-08T23:06:02.653Z,49.00
2022-12-08T23:08:29.613Z,50.78
2022-12-08T23:10:57.651Z,49.88
2022-12-08T23:13:24.292Z,51.50
2022-12-08T23:16:00.255Z,49.05
2022-12-08T23:18:30.336Z,48.08
2022-12-08T23:21:05.566Z,42.92
2022-12-08T23:23:35.473Z,46.28
2022-12-08T23:26:02.677Z,43.03
2022-12-08T23:28:29.420Z,40.70
2022-12-08T23:30:57.275Z,40.20
2022-12-08T23:33:23.909Z,43.53
2022-12-08T23:35:56.909Z,44.05
2022-12-08T23:38:23.881Z,36.50
2022-12-08T23:40:50.513Z,36.70
2022-12-08T23:43:17.055Z,40.28
2022-12-08T23:45:46.505Z,34.63
2022-12-08T23:48:13.161Z,35.63
2022-12-08T23:50:40.024Z,32.85
2022-12-08T23:53:06.804Z,34.28
2022-12-08T23:55:33.466Z,37.80
2022-12-08T23:58:00.005Z,35.22
